createdAt,value
2024-01-26T06:01:24.299Z,50.00
2024-01-26T06:01:59.709Z,50.00
2024-01-26T06:02:59.729Z,50.00
2024-01-26T06:03:59.780Z,50.00
2024-01-26T06:04:59.711Z,50.00
2024-01-26T06:05:59.784Z,50.00
2024-01-26T06:06:59.751Z,35.96
2024-01-26T06:07:59.789Z,17.04
2024-01-26T06:08:59.839Z,6.90
2024-01-26T06:09:59.701Z,1.56
2024-01-26T06:10:59.703Z,0.00
2024-01-26T06:11:59.696Z,0.00
2024-01-26T06:12:59.743Z,2.05
2024-01-26T06:13:59.710Z,6.85
2024-01-26T06:14:59.731Z,12.69
2024-01-26T06:15:59.729Z,23.81
2024-01-26T06:16:59.773Z,36.61
2024-01-26T06:17:59.965Z,47.69
2024-01-26T06:19:01.785Z,50.12
2024-01-26T06:19:59.714Z,46.74
2024-01-26T06:20:59.777Z,39.15
2024-01-26T06:21:59.783Z,31.18
2024-01-26T06:22:59.733Z,26.15
2024-01-26T06:23:59.788Z,21.48
2024-01-26T06:24:59.824Z,35.16
2024-01-26T06:25:59.748Z,49.86
2024-01-26T06:26:59.773Z,51.65
2024-01-26T06:27:59.743Z,50.00
2024-01-26T06:28:59.728Z,51.68
2024-01-26T06:29:59.798Z,50.11
2024-01-26T06:30:59.740Z,50.00
2024-01-26T06:31:59.730Z,50.90
2024-01-26T06:32:59.878Z,51.73
2024-01-26T06:33:59.848Z,50.59
2024-01-26T06:34:59.817Z,50.00
2024-01-26T06:35:59.812Z,52.53
2024-01-26T06:36:59.756Z,50.00
2024-01-26T06:37:59.723Z,50.00
2024-01-26T06:38:59.781Z,50.30
2024-01-26T06:39:59.706Z,52.23
2024-01-26T06:40:59.762Z,52.99
2024-01-26T06:41:59.791Z,51.22
2024-01-26T06:42:59.736Z,51.75
2024-01-26T06:43:59.761Z,53.78
2024-01-26T06:44:59.784Z,51.47
2024-01-26T06:45:59.865Z,52.85
2024-01-26T06:46:59.847Z,54.59
2024-01-26T06:47:59.820Z,50.00
2024-01-26T06:49:01.132Z,51.71
2024-01-26T06:49:59.834Z,53.47
2024-01-26T06:50:59.924Z,50.89
2024-01-26T06:51:59.957Z,53.71
2024-01-26T06:52:59.972Z,52.86
2024-01-26T06:54:00.128Z,50.61
2024-01-26T06:55:00.289Z,50.00
2024-01-26T06:56:00.240Z,50.00
2024-01-26T06:57:00.323Z,53.34
2024-01-26T06:58:00.345Z,52.84
2024-01-26T06:59:00.361Z,51.40
2024-01-26T07:00:01.218Z,50.00
2024-01-26T07:01:00.591Z,53.13
2024-01-26T07:02:00.506Z,51.94
2024-01-26T07:03:00.634Z,50.76
2024-01-26T07:04:00.792Z,50.00
2024-01-26T07:05:00.678Z,52.37
2024-01-26T07:06:00.732Z,51.11
2024-01-26T07:07:00.809Z,50.23
2024-01-26T07:08:00.733Z,49.58
2024-01-26T07:09:00.976Z,53.84
2024-01-26T07:10:00.885Z,51.34
2024-01-26T07:11:00.884Z,53.04
2024-01-26T07:12:01.400Z,52.46
2024-01-26T07:13:00.817Z,52.05
2024-01-26T07:14:00.826Z,51.40
2024-01-26T07:15:00.989Z,51.71
2024-01-26T07:16:00.848Z,51.43
2024-01-26T07:17:00.868Z,53.25
2024-01-26T07:18:00.955Z,51.95
2024-01-26T07:19:00.987Z,54.26
2024-01-26T07:20:01.095Z,53.13
2024-01-26T07:21:01.019Z,54.30
2024-01-26T07:22:00.925Z,52.15
2024-01-26T07:23:01.042Z,52.23
2024-01-26T07:24:01.082Z,53.32
2024-01-26T07:25:01.108Z,54.97
2024-01-26T07:26:01.140Z,54.41
2024-01-26T07:27:01.145Z,54.02
2024-01-26T07:28:01.069Z,54.91
2024-01-26T07:29:01.092Z,53.06
2024-01-26T07:30:01.172Z,51.54
2024-01-26T07:31:01.078Z,51.88
2024-01-26T07:32:01.204Z,52.32
2024-01-26T07:33:01.254Z,52.40
2024-01-26T07:34:01.309Z,52.64
2024-01-26T07:35:01.217Z,52.74
2024-01-26T07:36:01.256Z,53.59
2024-01-26T07:37:01.129Z,53.41
2024-01-26T07:38:01.135Z,51.65
2024-01-26T07:39:01.788Z,52.76
2024-01-26T07:40:01.670Z,53.22
2024-01-26T07:41:01.151Z,51.02
2024-01-26T07:42:01.248Z,52.75
2024-01-26T07:43:01.201Z,52.94
2024-01-26T07:44:01.150Z,53.14
2024-01-26T07:45:01.253Z,52.65
2024-01-26T07:46:01.093Z,50.86
2024-01-26T07:47:01.142Z,52.67
2024-01-26T07:48:01.298Z,54.32
2024-01-26T07:49:01.243Z,53.44
2024-01-26T07:50:01.313Z,52.99
2024-01-26T07:51:01.176Z,53.15
2024-01-26T07:52:01.114Z,54.29
2024-01-26T07:53:01.118Z,52.94
2024-01-26T07:54:01.166Z,51.78
2024-01-26T07:55:01.150Z,55.56
2024-01-26T07:56:02.411Z,54.21
2024-01-26T07:57:01.220Z,55.60
2024-01-26T07:58:01.192Z,53.94
2024-01-26T07:59:01.234Z,54.04
2024-01-26T08:00:01.318Z,52.57
2024-01-26T08:01:01.280Z,56.57
2024-01-26T08:02:01.265Z,56.96
2024-01-26T08:03:01.275Z,55.12
2024-01-26T08:04:01.399Z,56.23
2024-01-26T08:05:01.270Z,55.22
2024-01-26T08:06:01.465Z,54.18
2024-01-26T08:07:02.226Z,55.24
2024-01-26T08:08:01.389Z,57.33
2024-01-26T08:09:01.351Z,55.54
2024-01-26T08:10:01.441Z,59.89
2024-01-26T08:11:01.386Z,58.82
2024-01-26T08:12:01.399Z,57.36
2024-01-26T08:13:01.502Z,58.76
2024-01-26T08:14:01.411Z,57.87
2024-01-26T08:15:01.482Z,58.11
2024-01-26T08:16:01.391Z,58.34
2024-01-26T08:17:01.446Z,57.33
2024-01-26T08:18:01.520Z,59.49
2024-01-26T08:19:01.562Z,58.06
2024-01-26T08:20:01.490Z,57.42
2024-01-26T08:21:01.534Z,55.34
2024-01-26T08:22:01.506Z,57.22
2024-01-26T08:23:01.475Z,55.72
2024-01-26T08:24:01.499Z,56.78
2024-01-26T08:25:01.538Z,60.65
2024-01-26T08:26:01.757Z,65.54
2024-01-26T08:27:01.716Z,66.35
2024-01-26T08:28:01.810Z,65.22
2024-01-26T08:29:01.796Z,65.50
2024-01-26T08:30:01.901Z,65.79
2024-01-26T08:31:01.767Z,64.34
2024-01-26T08:32:01.865Z,60.38
2024-01-26T08:33:01.971Z,54.32
2024-01-26T08:34:02.183Z,51.15
2024-01-26T08:35:02.449Z,51.87
2024-01-26T08:36:02.117Z,51.71
2024-01-26T08:37:02.217Z,51.08
2024-01-26T08:38:02.147Z,52.57
2024-01-26T08:39:02.218Z,50.34
2024-01-26T08:40:02.130Z,53.18
2024-01-26T08:41:02.213Z,54.33
2024-01-26T08:42:02.801Z,53.97
2024-01-26T08:43:02.234Z,54.27
2024-01-26T08:44:02.209Z,51.50
2024-01-26T08:45:02.381Z,55.46
2024-01-26T08:46:02.274Z,53.52
2024-01-26T08:47:02.367Z,53.89
2024-01-26T08:48:02.535Z,54.76
2024-01-26T08:49:02.821Z,54.35
2024-01-26T08:50:02.559Z,54.80
2024-01-26T08:51:02.672Z,56.28
2024-01-26T08:52:02.653Z,57.33
2024-01-26T08:53:02.679Z,61.38
2024-01-26T08:54:02.820Z,63.88
2024-01-26T08:55:02.739Z,64.34
2024-01-26T08:56:02.814Z,65.20
2024-01-26T08:57:02.825Z,67.42
2024-01-26T08:58:02.851Z,67.33
2024-01-26T08:59:03.173Z,68.44
2024-01-26T09:00:02.930Z,71.72
2024-01-26T09:01:02.959Z,74.40
2024-01-26T09:02:02.884Z,75.74
2024-01-26T09:03:02.957Z,80.87
2024-01-26T09:04:02.960Z,82.04
2024-01-26T09:05:03.465Z,89.61
2024-01-26T09:06:02.999Z,94.42
2024-01-26T09:07:10.067Z,105.85
2024-01-26T09:08:03.983Z,105.98
2024-01-26T09:09:02.996Z,106.03
2024-01-26T09:10:03.011Z,106.85
2024-01-26T09:11:02.962Z,108.81
2024-01-26T09:12:03.016Z,112.13
2024-01-26T09:13:02.980Z,119.13
2024-01-26T09:14:03.022Z,123.42
2024-01-26T09:15:03.018Z,122.53
2024-01-26T09:16:03.784Z,126.05
2024-01-26T09:17:03.000Z,128.12
2024-01-26T09:18:03.162Z,139.50
2024-01-26T09:19:04.331Z,145.61
2024-01-26T09:20:03.338Z,148.21
2024-01-26T09:21:02.973Z,147.74
2024-01-26T09:22:02.952Z,147.89
2024-01-26T09:23:02.975Z,144.32
2024-01-26T09:24:05.703Z,143.82
2024-01-26T09:25:02.972Z,146.40
2024-01-26T09:26:03.069Z,147.03
2024-01-26T09:27:03.024Z,146.81
2024-01-26T09:28:02.971Z,145.83
2024-01-26T09:29:10.291Z,50.00
2024-01-26T09:30:10.548Z,50.00
2024-01-26T09:31:10.307Z,50.00
2024-01-26T09:32:10.274Z,50.00
2024-01-26T09:33:10.323Z,50.00
2024-01-26T09:34:10.396Z,53.56
2024-01-26T09:35:10.332Z,50.36
2024-01-26T09:36:10.353Z,52.08
2024-01-26T09:37:10.320Z,53.04
2024-01-26T09:38:10.329Z,51.90
2024-01-26T09:39:10.309Z,50.18
2024-01-26T09:40:10.311Z,50.57
2024-01-26T09:41:10.287Z,50.00
2024-01-26T09:42:10.336Z,50.18
2024-01-26T09:43:10.301Z,52.34
2024-01-26T09:44:10.287Z,50.49
2024-01-26T09:45:10.316Z,51.43
2024-01-26T09:46:10.291Z,51.84
2024-01-26T09:47:10.337Z,54.13
2024-01-26T09:48:10.385Z,53.52
2024-01-26T09:49:10.356Z,55.64
2024-01-26T09:50:10.343Z,54.39
2024-01-26T09:51:10.499Z,53.58
2024-01-26T09:52:10.485Z,55.13
2024-01-26T09:53:10.520Z,52.72
2024-01-26T09:54:10.574Z,54.88
2024-01-26T09:55:10.603Z,54.22
2024-01-26T09:56:10.675Z,53.38
2024-01-26T09:57:10.790Z,52.90
2024-01-26T09:58:10.800Z,51.91
2024-01-26T09:59:10.860Z,51.23
2024-01-26T10:00:10.944Z,50.54
2024-01-26T10:01:11.059Z,50.00
2024-01-26T10:02:11.046Z,51.98
2024-01-26T10:03:11.160Z,53.57
2024-01-26T10:04:11.287Z,52.02
2024-01-26T10:05:11.241Z,54.07
2024-01-26T10:06:11.378Z,52.12
2024-01-26T10:07:11.463Z,51.85
2024-01-26T10:08:11.446Z,53.47
2024-01-26T10:09:11.516Z,55.49
2024-01-26T10:10:11.498Z,54.48
2024-01-26T10:11:11.540Z,57.28
2024-01-26T10:12:11.756Z,58.53
2024-01-26T10:13:11.621Z,58.52
2024-01-26T10:14:11.691Z,60.53
2024-01-26T10:15:11.905Z,57.00
2024-01-26T10:16:11.824Z,58.86
2024-01-26T10:17:11.778Z,58.56
2024-01-26T10:18:11.962Z,58.23
2024-01-26T10:19:12.064Z,60.60
2024-01-26T10:20:11.994Z,61.99
2024-01-26T10:21:12.113Z,63.41
2024-01-26T10:22:11.984Z,63.18
2024-01-26T10:23:12.005Z,61.95
2024-01-26T10:24:12.113Z,62.36
2024-01-26T10:25:12.092Z,60.72
2024-01-26T10:26:12.148Z,63.15
2024-01-26T10:27:12.236Z,63.66
2024-01-26T10:28:12.197Z,63.55
2024-01-26T10:29:12.217Z,63.26
2024-01-26T10:30:12.311Z,58.66
2024-01-26T10:31:12.274Z,57.19
2024-01-26T10:32:12.306Z,59.53
2024-01-26T10:33:12.490Z,57.78
2024-01-26T10:34:12.444Z,59.00
2024-01-26T10:35:12.543Z,57.11
2024-01-26T10:36:12.548Z,58.59
2024-01-26T10:37:12.504Z,57.64
2024-01-26T10:38:12.491Z,58.00
2024-01-26T10:39:12.539Z,56.63
2024-01-26T10:40:12.560Z,59.23
2024-01-26T10:41:12.578Z,56.98
2024-01-26T10:42:12.600Z,56.01
2024-01-26T10:43:12.584Z,55.36
2024-01-26T10:44:12.583Z,55.55
2024-01-26T10:45:12.917Z,53.22
2024-01-26T10:46:12.608Z,54.15
2024-01-26T10:47:12.632Z,54.69
2024-01-26T10:48:12.713Z,53.90
2024-01-26T10:49:12.798Z,51.14
2024-01-26T10:50:12.909Z,56.64
2024-01-26T10:51:13.219Z,56.77
2024-01-26T10:52:12.836Z,57.26
2024-01-26T10:53:12.698Z,56.98
2024-01-26T10:54:12.905Z,57.55
2024-01-26T10:55:12.828Z,57.78
2024-01-26T10:56:12.843Z,57.90
2024-01-26T10:57:13.034Z,61.07
2024-01-26T10:58:12.941Z,59.23
2024-01-26T10:59:13.005Z,58.05
2024-01-26T11:00:13.147Z,61.07
2024-01-26T11:01:16.297Z,62.42
2024-01-26T11:02:21.171Z,65.09
2024-01-26T11:03:14.293Z,65.25
2024-01-26T11:04:13.191Z,66.03
2024-01-26T11:05:18.988Z,66.05
2024-01-26T11:06:13.290Z,65.34
2024-01-26T11:08:17.048Z,65.17
2024-01-26T11:09:13.323Z,66.08
2024-01-26T11:10:13.186Z,68.62
2024-01-26T11:11:13.160Z,71.94
2024-01-26T11:12:13.303Z,75.89
2024-01-26T11:13:13.202Z,78.34
2024-01-26T11:14:13.241Z,77.70
2024-01-26T11:15:13.226Z,77.28
2024-01-26T11:16:13.174Z,75.96
2024-01-26T11:17:13.160Z,75.58
2024-01-26T11:18:13.314Z,76.82
2024-01-26T11:19:13.277Z,75.96
2024-01-26T11:20:13.201Z,77.31
2024-01-26T11:21:13.229Z,76.53
2024-01-26T11:22:13.184Z,78.20
2024-01-26T11:23:13.228Z,74.87
2024-01-26T11:24:13.251Z,76.78
2024-01-26T11:25:13.205Z,76.01
2024-01-26T11:26:13.192Z,76.54
2024-01-26T11:27:13.252Z,77.79
2024-01-26T11:28:13.220Z,77.23
2024-01-26T11:29:13.215Z,73.34
2024-01-26T11:30:13.293Z,76.71
2024-01-26T11:31:13.205Z,76.95
2024-01-26T11:32:13.201Z,77.45
2024-01-26T11:33:13.294Z,78.91
2024-01-26T11:34:13.265Z,79.26
2024-01-26T11:35:13.224Z,77.78
2024-01-26T11:36:13.761Z,79.15
2024-01-26T11:37:13.212Z,80.28
2024-01-26T11:38:13.214Z,78.86
2024-01-26T11:39:13.219Z,77.70
2024-01-26T11:40:13.208Z,80.59
2024-01-26T11:41:13.218Z,80.20
2024-01-26T11:42:13.372Z,78.08
2024-01-26T11:43:13.225Z,81.35
2024-01-26T11:44:13.191Z,81.71
2024-01-26T11:45:13.336Z,81.08
2024-01-26T11:46:13.232Z,81.82
2024-01-26T11:47:13.244Z,82.88
2024-01-26T11:48:13.266Z,82.76
2024-01-26T11:49:13.354Z,84.53
2024-01-26T11:50:13.213Z,85.11
2024-01-26T11:51:13.283Z,84.73
2024-01-26T11:52:13.227Z,87.29
2024-01-26T11:53:13.201Z,89.10
2024-01-26T11:54:13.304Z,89.99
2024-01-26T11:55:13.233Z,89.53
2024-01-26T11:56:13.269Z,91.09
2024-01-26T11:57:13.346Z,91.10
2024-01-26T11:58:13.238Z,88.79
2024-01-26T11:59:13.260Z,90.72
2024-01-26T12:00:13.362Z,88.37
2024-01-26T12:01:13.456Z,89.53
2024-01-26T12:02:13.551Z,88.65
2024-01-26T12:03:13.573Z,91.05
2024-01-26T12:04:13.685Z,91.56
2024-01-26T12:05:13.772Z,90.25
2024-01-26T12:06:13.817Z,89.80
2024-01-26T12:07:13.823Z,90.71
2024-01-26T12:08:13.850Z,90.80
2024-01-26T12:09:14.026Z,92.61
2024-01-26T12:10:13.998Z,94.33
2024-01-26T12:11:14.034Z,94.80
2024-01-26T12:12:14.136Z,96.22
2024-01-26T12:13:14.299Z,98.00
2024-01-26T12:14:14.177Z,96.48
2024-01-26T12:15:14.320Z,98.13
2024-01-26T12:16:14.189Z,96.31
2024-01-26T12:17:14.211Z,90.90
2024-01-26T12:18:14.402Z,84.14
2024-01-26T12:19:14.369Z,74.09
2024-01-26T12:20:14.369Z,65.05
2024-01-26T12:21:14.376Z,53.62
2024-01-26T12:22:14.385Z,50.00
2024-01-26T12:23:14.411Z,50.00
2024-01-26T12:24:15.798Z,50.86
2024-01-26T12:25:14.550Z,50.00
2024-01-26T12:26:14.612Z,50.52
2024-01-26T12:27:14.752Z,51.06
2024-01-26T12:28:14.647Z,50.00
2024-01-26T12:29:14.696Z,50.00
2024-01-26T12:30:14.841Z,50.00
2024-01-26T12:31:14.765Z,50.54
2024-01-26T12:32:14.891Z,50.00
2024-01-26T12:33:15.054Z,50.00
2024-01-26T12:34:14.974Z,52.03
2024-01-26T12:35:14.843Z,50.73
2024-01-26T12:36:14.933Z,55.29
2024-01-26T12:37:14.891Z,59.26
2024-01-26T12:38:14.956Z,65.73
2024-01-26T12:39:15.065Z,70.01
2024-01-26T12:40:15.045Z,76.20
2024-01-26T12:41:15.046Z,79.68
2024-01-26T12:42:15.177Z,85.39
2024-01-26T12:43:15.072Z,88.29
2024-01-26T12:44:15.100Z,94.30
2024-01-26T12:45:15.328Z,95.53
2024-01-26T12:46:15.206Z,96.13
2024-01-26T12:47:15.322Z,94.98
2024-01-26T12:48:15.466Z,94.14
2024-01-26T12:49:15.523Z,95.13
2024-01-26T12:50:15.500Z,95.04
2024-01-26T12:51:15.588Z,93.20
2024-01-26T12:52:39.487Z,92.33
2024-01-26T12:53:15.564Z,92.52
2024-01-26T12:54:39.040Z,93.36
2024-01-26T12:55:38.150Z,92.67
2024-01-26T12:56:38.248Z,92.80
2024-01-26T12:57:15.798Z,92.90
2024-01-26T12:58:38.171Z,95.22
2024-01-26T12:59:15.652Z,92.89
2024-01-26T13:00:15.696Z,95.19
2024-01-26T13:01:15.706Z,98.25
2024-01-26T13:02:15.680Z,102.12
2024-01-26T13:03:15.699Z,107.18
2024-01-26T13:04:15.755Z,109.08
2024-01-26T13:05:15.737Z,108.75
2024-01-26T13:06:19.079Z,106.15
2024-01-26T13:07:15.728Z,106.15
2024-01-26T13:08:15.656Z,103.09
2024-01-26T13:09:15.834Z,102.61
2024-01-26T13:10:15.738Z,104.98
2024-01-26T13:11:15.685Z,101.95
2024-01-26T13:12:15.715Z,100.70
2024-01-26T13:13:15.716Z,99.84
2024-01-26T13:14:15.695Z,97.41
2024-01-26T13:15:15.913Z,96.10
2024-01-26T13:16:15.684Z,93.09
2024-01-26T13:17:15.682Z,93.70
2024-01-26T13:19:15.806Z,88.89
2024-01-26T13:20:19.723Z,87.82
2024-01-26T13:21:16.876Z,87.71
2024-01-26T13:22:15.732Z,88.11
2024-01-26T13:23:15.698Z,85.97
2024-01-26T13:24:15.941Z,84.87
2024-01-26T13:25:15.714Z,81.47
2024-01-26T13:26:15.722Z,83.44
2024-01-26T13:27:17.617Z,82.62
2024-01-26T13:28:16.717Z,82.64
2024-01-26T13:29:15.722Z,82.78
2024-01-26T13:30:16.332Z,80.49
2024-01-26T13:31:16.264Z,80.45
2024-01-26T13:32:15.726Z,77.94
2024-01-26T13:33:15.950Z,77.01
2024-01-26T13:34:15.921Z,75.83
2024-01-26T13:35:15.776Z,76.10
2024-01-26T13:36:15.767Z,73.69
2024-01-26T13:37:15.710Z,70.21
2024-01-26T13:38:15.730Z,73.47
2024-01-26T13:39:15.781Z,70.57
2024-01-26T13:40:15.740Z,71.63
2024-01-26T13:41:15.800Z,70.71
2024-01-26T13:42:15.935Z,70.34
2024-01-26T13:43:15.894Z,70.18
2024-01-26T13:44:15.960Z,67.13
2024-01-26T13:45:16.128Z,69.65
2024-01-26T13:46:16.048Z,67.32
2024-01-26T13:47:16.106Z,68.88
2024-01-26T13:48:16.261Z,68.01
2024-01-26T13:49:16.404Z,67.33
2024-01-26T13:50:16.358Z,64.81
2024-01-26T13:51:16.396Z,66.38
2024-01-26T13:52:16.414Z,67.61
2024-01-26T13:53:16.488Z,68.02
2024-01-26T13:54:16.563Z,64.18
2024-01-26T13:55:18.759Z,65.41
2024-01-26T13:56:16.591Z,66.06
2024-01-26T13:57:16.652Z,65.88
2024-01-26T13:58:16.564Z,65.04
2024-01-26T13:59:16.554Z,67.00
2024-01-26T14:00:21.395Z,64.33
2024-01-26T14:01:19.091Z,64.47
2024-01-26T14:02:16.596Z,62.55
2024-01-26T14:03:16.627Z,57.86
2024-01-26T14:04:16.632Z,56.76
2024-01-26T14:05:16.747Z,53.24
2024-01-26T14:06:16.752Z,53.47
2024-01-26T14:07:16.554Z,50.00
2024-01-26T14:08:16.609Z,51.71
2024-01-26T14:09:16.712Z,52.74
2024-01-26T14:10:16.593Z,51.52
2024-01-26T14:11:16.568Z,51.30
2024-01-26T14:12:16.651Z,50.00
2024-01-26T14:13:16.566Z,51.46
2024-01-26T14:14:16.629Z,50.54
2024-01-26T14:15:17.021Z,50.95
2024-01-26T14:16:16.585Z,50.06
2024-01-26T14:17:16.569Z,51.35
2024-01-26T14:18:16.772Z,54.03
2024-01-26T14:19:16.827Z,51.63
2024-01-26T14:20:16.617Z,51.18
2024-01-26T14:21:16.715Z,52.21
2024-01-26T14:22:16.598Z,50.93
2024-01-26T14:23:16.590Z,52.38
2024-01-26T14:24:16.674Z,51.97
2024-01-26T14:25:16.604Z,50.30
2024-01-26T14:26:16.605Z,52.48
2024-01-26T14:27:16.691Z,52.41
2024-01-26T14:28:16.614Z,51.51
2024-01-26T14:29:16.633Z,52.64
2024-01-26T14:30:16.662Z,51.43
2024-01-26T14:31:16.604Z,51.19
2024-01-26T14:32:16.633Z,50.46
2024-01-26T14:33:16.722Z,52.55
2024-01-26T14:34:16.727Z,52.23
2024-01-26T14:35:43.335Z,50.00
2024-01-26T14:36:43.172Z,50.00
2024-01-26T14:37:43.205Z,50.00
2024-01-26T14:38:43.251Z,50.00
2024-01-26T14:39:43.187Z,50.00
2024-01-26T14:40:43.243Z,50.52
2024-01-26T14:41:43.337Z,52.49
2024-01-26T14:42:43.362Z,52.42
2024-01-26T14:43:43.432Z,51.22
2024-01-26T14:44:43.544Z,51.10
2024-01-26T14:45:43.612Z,50.00
2024-01-26T14:46:43.612Z,50.62
2024-01-26T14:47:43.795Z,51.46
2024-01-26T14:48:43.856Z,51.46
2024-01-26T14:49:43.806Z,52.66
2024-01-26T14:51:06.340Z,52.63
2024-01-26T14:51:43.836Z,52.77
2024-01-26T14:52:43.809Z,53.02
2024-01-26T14:53:43.910Z,53.61
2024-01-26T14:54:43.835Z,54.13
2024-01-26T14:55:43.865Z,51.24
2024-01-26T14:56:43.878Z,53.17
2024-01-26T14:57:43.849Z,52.42
2024-01-26T14:58:43.837Z,52.80
2024-01-26T14:59:43.858Z,50.12
2024-01-26T15:00:43.895Z,50.22
2024-01-26T15:01:43.831Z,52.58
2024-01-26T15:02:43.852Z,53.07
2024-01-26T15:03:43.912Z,51.09
2024-01-26T15:04:43.918Z,50.73
2024-01-26T15:05:43.992Z,51.55
2024-01-26T15:06:43.870Z,52.78
2024-01-26T15:07:47.922Z,51.79
2024-01-26T15:08:45.047Z,51.89
2024-01-26T15:09:43.901Z,51.89
2024-01-26T15:10:43.850Z,52.87
2024-01-26T15:11:43.931Z,52.49
2024-01-26T15:12:43.853Z,51.10
2024-01-26T15:13:43.867Z,52.63
2024-01-26T15:14:43.878Z,53.11
2024-01-26T15:15:43.843Z,52.42
2024-01-26T15:16:43.863Z,52.78
2024-01-26T15:17:43.926Z,52.19
2024-01-26T15:18:44.083Z,53.93
2024-01-26T15:19:44.105Z,54.95
2024-01-26T15:20:44.175Z,53.17
2024-01-26T15:21:44.184Z,52.73
2024-01-26T15:22:44.139Z,54.39
2024-01-26T15:23:44.249Z,52.62
2024-01-26T15:24:44.237Z,53.16
2024-01-26T15:25:44.291Z,53.71
2024-01-26T15:26:44.458Z,53.55
2024-01-26T15:27:44.398Z,53.34
2024-01-26T15:28:44.449Z,51.22
2024-01-26T15:29:44.527Z,53.79
2024-01-26T15:30:44.590Z,52.05
2024-01-26T15:31:44.634Z,55.28
2024-01-26T15:32:44.801Z,52.29
2024-01-26T15:33:44.819Z,54.71
2024-01-26T15:34:44.819Z,53.46
2024-01-26T15:35:44.883Z,52.75
2024-01-26T15:36:44.868Z,62.32
2024-01-26T15:37:44.928Z,71.02
2024-01-26T15:38:45.053Z,76.61
2024-01-26T15:39:45.022Z,85.17
2024-01-26T15:40:45.117Z,91.73
2024-01-26T15:41:45.957Z,96.88
2024-01-26T15:42:45.276Z,100.28
2024-01-26T15:43:45.307Z,104.46
2024-01-26T15:44:45.217Z,106.57
2024-01-26T15:45:45.390Z,110.28
2024-01-26T15:46:45.286Z,114.39
2024-01-26T15:47:45.757Z,115.47
2024-01-26T15:48:45.564Z,115.89
2024-01-26T15:49:45.514Z,117.15
2024-01-26T15:50:45.485Z,115.87
2024-01-26T15:51:45.541Z,115.71
2024-01-26T15:52:47.082Z,113.89
2024-01-26T15:53:46.512Z,114.22
2024-01-26T15:54:45.528Z,115.78
2024-01-26T15:55:45.525Z,115.71
2024-01-26T15:56:45.663Z,116.79
2024-01-26T15:57:45.630Z,116.04
2024-01-26T15:58:45.684Z,118.62
2024-01-26T15:59:47.294Z,115.96
2024-01-26T16:00:45.819Z,114.12
2024-01-26T16:01:45.676Z,116.96
2024-01-26T16:02:45.723Z,120.13
2024-01-26T16:03:45.813Z,119.43
2024-01-26T16:04:46.056Z,119.88
2024-01-26T16:05:45.959Z,119.86
2024-01-26T16:06:50.069Z,119.31
2024-01-26T16:07:45.782Z,119.37
2024-01-26T16:08:45.821Z,119.40
2024-01-26T16:09:45.791Z,119.33
2024-01-26T16:10:45.797Z,118.64
2024-01-26T16:11:45.843Z,118.70
2024-01-26T16:12:45.819Z,118.42
2024-01-26T16:13:45.802Z,119.79
2024-01-26T16:14:45.847Z,119.94
2024-01-26T16:15:45.805Z,118.92
2024-01-26T16:16:45.804Z,118.62
2024-01-26T16:17:45.916Z,119.75
2024-01-26T16:18:46.244Z,118.07
2024-01-26T16:19:45.846Z,118.22
2024-01-26T16:20:45.916Z,120.69
2024-01-26T16:21:45.811Z,118.98
2024-01-26T16:22:45.798Z,117.96
2024-01-26T16:23:45.825Z,119.38
2024-01-26T16:24:45.857Z,118.98
2024-01-26T16:25:45.848Z,118.00
2024-01-26T16:26:45.893Z,119.58
2024-01-26T16:27:45.955Z,117.89
2024-01-26T16:28:45.838Z,118.67
2024-01-26T16:29:45.829Z,117.33
2024-01-26T16:30:45.835Z,117.06
2024-01-26T16:31:45.932Z,116.11
2024-01-26T16:32:45.972Z,118.73
2024-01-26T16:33:46.063Z,117.16
2024-01-26T16:34:45.909Z,116.94
2024-01-26T16:35:45.885Z,118.72
2024-01-26T16:36:45.947Z,116.64
2024-01-26T16:37:45.859Z,120.01
2024-01-26T16:38:54.329Z,116.28
2024-01-26T16:39:46.909Z,116.38
2024-01-26T16:40:46.086Z,116.79
2024-01-26T16:41:45.903Z,117.48
2024-01-26T16:43:09.367Z,116.62
2024-01-26T16:44:08.489Z,116.50
2024-01-26T16:45:08.532Z,116.62
2024-01-26T16:45:46.066Z,116.70
2024-01-26T16:46:45.989Z,118.53
2024-01-26T16:47:46.135Z,120.38
2024-01-26T16:48:46.134Z,123.30
2024-01-26T16:49:46.102Z,125.77
2024-01-26T16:50:46.057Z,127.77
2024-01-26T16:51:46.021Z,125.35
2024-01-26T16:52:46.024Z,124.13
2024-01-26T16:53:46.083Z,123.86
2024-01-26T16:54:46.100Z,125.24
2024-01-26T16:55:46.113Z,120.23
2024-01-26T16:56:46.103Z,121.24
2024-01-26T16:57:46.096Z,121.91
2024-01-26T16:58:46.056Z,122.04
2024-01-26T16:59:46.033Z,120.49
2024-01-26T17:00:46.227Z,119.90
2024-01-26T17:01:46.113Z,120.27
2024-01-26T17:02:46.200Z,120.35
2024-01-26T17:03:46.225Z,120.37
2024-01-26T17:04:46.076Z,120.03
2024-01-26T17:05:46.233Z,119.28
2024-01-26T17:06:46.143Z,117.29
2024-01-26T17:07:46.060Z,116.95
2024-01-26T17:08:46.163Z,118.13
2024-01-26T17:09:46.034Z,118.17
2024-01-26T17:10:46.044Z,120.57
2024-01-26T17:11:46.059Z,117.71
2024-01-26T17:12:46.049Z,118.13
2024-01-26T17:13:46.050Z,118.89
2024-01-26T17:14:46.110Z,117.54
2024-01-26T17:15:46.064Z,116.73
2024-01-26T17:16:46.043Z,116.88
2024-01-26T17:17:46.115Z,117.60
2024-01-26T17:18:46.306Z,116.47
2024-01-26T17:19:46.083Z,117.84
2024-01-26T17:20:46.113Z,117.20
2024-01-26T17:21:46.324Z,117.92
2024-01-26T17:22:46.055Z,119.08
2024-01-26T17:23:46.066Z,119.28
2024-01-26T17:24:46.017Z,116.89
2024-01-26T17:25:46.085Z,116.52
2024-01-26T17:26:46.076Z,118.96
2024-01-26T17:27:46.036Z,117.26
2024-01-26T17:28:46.047Z,118.62
2024-01-26T17:29:46.112Z,117.41
2024-01-26T17:30:46.110Z,117.40
2024-01-26T17:31:46.079Z,116.70
2024-01-26T17:32:46.254Z,118.17
2024-01-26T17:33:46.243Z,115.12
2024-01-26T17:34:46.148Z,117.20
2024-01-26T17:35:46.248Z,118.14
2024-01-26T17:36:46.237Z,117.21
2024-01-26T17:37:46.148Z,118.63
2024-01-26T17:38:46.189Z,116.49
2024-01-26T17:39:56.291Z,116.77
2024-01-26T17:40:47.206Z,116.79
2024-01-26T17:41:46.239Z,116.87
2024-01-26T17:42:46.186Z,116.78
2024-01-26T17:43:46.194Z,117.22
2024-01-26T17:44:46.201Z,117.74
2024-01-26T17:45:46.191Z,116.02
2024-01-26T17:46:49.147Z,117.64
2024-01-26T17:47:46.293Z,117.65
2024-01-26T17:48:46.290Z,116.74
2024-01-26T17:49:46.259Z,116.47
2024-01-26T17:50:46.209Z,118.51
2024-01-26T17:51:46.222Z,118.27
2024-01-26T17:52:46.243Z,118.13
2024-01-26T17:53:46.231Z,117.96
2024-01-26T17:54:46.213Z,119.35
2024-01-26T17:55:46.221Z,116.42
2024-01-26T17:56:46.242Z,117.06
2024-01-26T17:57:46.211Z,117.22
2024-01-26T17:58:46.252Z,115.38
2024-01-26T17:59:46.276Z,116.91
2024-01-26T18:00:46.295Z,116.12
